Time;durP1;ratioP1;P1;durP2;ratioP2;P2;SDS_P1;SDS_P2;PMS_P1;PMS_P2;Temp;Humidity;BMP_temperature;BMP_pressure;BME280_temperature;BME280_humidity;BME280_pressure;Samples;Min_cycle;Max_cycle;Signal;HPM_P1;HPM_P2
2021/05/13 03:30:16;;;;;;;12.30;9.20;;;;;;;14.93;61.28;98034.06;8475387;22;20190;31
2021/05/13 03:33:37;;;;;;;11.30;10.10;;;;;;;14.86;61.91;98035.34;6884416;28;20240;-76
2021/05/13 03:36:58;;;;;;;13.40;11.80;;;;;;;15.17;61.05;98032.75;6896938;28;20255;-77
2021/05/13 03:40:19;;;;;;;19.93;14.77;;;;;;;15.28;60.43;98039.16;6869069;28;20208;-77
2021/05/13 03:43:40;;;;;;;18.43;14.37;;;;;;;15.37;60.29;98040.38;6843367;28;20233;-77
2021/05/13 03:47:02;;;;;;;19.30;15.03;;;;;;;15.36;59.90;98027.88;6842974;29;20261;-76
2021/05/13 03:50:23;;;;;;;11.10;9.97;;;;;;;15.45;59.76;98013.56;6842419;29;20214;-77
2021/05/13 03:53:44;;;;;;;15.50;10.93;;;;;;;15.56;59.13;98019.94;6842572;28;20273;-77
2021/05/13 03:57:06;;;;;;;10.23;8.00;;;;;;;15.71;58.23;98009.22;6842370;28;20243;-77
2021/05/13 04:00:31;;;;;;;9.33;8.43;;;;;;;15.41;58.98;98011.63;6841690;29;20217;-77
2021/05/13 04:03:53;;;;;;;10.77;8.07;;;;;;;14.87;60.24;98013.38;6841502;28;20225;-78
2021/05/13 04:07:14;;;;;;;12.50;9.23;;;;;;;15.08;60.30;98009.84;6852796;28;20261;-78
2021/05/13 04:10:36;;;;;;;13.70;12.27;;;;;;;15.14;60.00;98022.41;6868454;28;20232;-77
2021/05/13 04:13:57;;;;;;;12.57;10.23;;;;;;;15.30;59.70;98016.09;6868801;28;20210;-76
2021/05/13 04:17:18;;;;;;;9.77;8.77;;;;;;;15.28;59.46;98012.00;6868575;28;20240;-76
2021/05/13 04:20:41;;;;;;;9.07;7.83;;;;;;;15.25;59.65;98015.19;6867602;28;20229;-77
2021/05/13 04:24:02;;;;;;;13.63;8.13;;;;;;;14.84;60.36;97994.88;6854668;28;20215;-77
2021/05/13 04:27:23;;;;;;;10.63;7.80;;;;;;;14.90;60.84;98015.59;6841550;29;20283;-78
2021/05/13 04:30:44;;;;;;;15.37;7.50;;;;;;;14.57;62.01;98021.09;6844819;28;20235;-77
2021/05/13 04:34:05;;;;;;;8.80;7.90;;;;;;;14.96;61.52;98005.59;6850798;28;20213;-78
2021/05/13 04:37:27;;;;;;;11.30;7.93;;;;;;;14.95;60.08;97995.84;6851956;28;20257;-77
2021/05/13 04:40:50;;;;;;;8.80;7.43;;;;;;;15.33;60.11;98012.09;6867123;28;20233;-77
2021/05/13 04:44:11;;;;;;;7.40;6.40;;;;;;;15.51;58.69;98011.75;6867512;28;20211;-77
2021/05/13 04:47:46;;;;;;;7.63;6.53;;;;;;;15.46;58.54;98012.50;6862424;28;20210;-78
2021/05/13 04:51:07;;;;;;;7.37;6.57;;;;;;;15.53;58.46;98004.16;6866107;28;20659;-77
2021/05/13 04:54:29;;;;;;;12.80;6.47;;;;;;;15.47;59.18;97991.59;6867238;28;20347;-76
2021/05/13 04:57:50;;;;;;;11.30;8.47;;;;;;;15.86;58.01;97995.81;6865821;28;20235;-78
2021/05/13 05:01:11;;;;;;;10.50;9.40;;;;;;;15.80;58.23;98005.78;6840255;28;20226;-77
2021/05/13 05:04:32;;;;;;;9.80;7.73;;;;;;;15.77;57.97;97997.34;6840428;29;20186;-76
2021/05/13 05:07:53;;;;;;;8.87;6.93;;;;;;;15.82;58.19;97998.19;6840479;29;20278;-76
2021/05/13 05:11:17;;;;;;;8.37;7.23;;;;;;;15.74;58.47;97987.78;6839920;29;20254;-76
2021/05/13 05:14:38;;;;;;;10.10;6.83;;;;;;;15.44;59.33;97994.81;6859159;28;20228;-77
2021/05/13 05:17:59;;;;;;;9.77;7.03;;;;;;;15.66;59.35;97990.97;6860311;28;20211;-78
2021/05/13 05:21:20;;;;;;;11.17;7.70;;;;;;;15.84;59.00;97987.91;6839220;28;20286;-78
2021/05/13 05:24:41;;;;;;;7.40;6.70;;;;;;;16.00;58.93;97994.28;6839528;28;20255;-77
2021/05/13 05:28:03;;;;;;;8.63;6.37;;;;;;;16.53;57.59;97986.00;6839468;28;20211;-77
2021/05/13 05:31:25;;;;;;;6.20;5.57;;;;;;;16.64;55.46;97927.84;6853713;28;20702;-78
2021/05/13 05:34:46;;;;;;;6.37;5.60;;;;;;;17.27;54.63;97977.38;6864769;28;20278;-78
2021/05/13 05:38:08;;;;;;;8.77;5.73;;;;;;;17.61;53.78;97978.59;6866834;28;20227;-78
2021/05/13 05:41:29;;;;;;;8.40;5.37;;;;;;;18.69;51.07;97978.06;6866420;28;20236;-78
2021/05/13 05:44:52;;;;;;;5.20;4.70;;;;;;;18.93;50.25;97970.88;6866657;28;20700;-77
2021/05/13 05:48:13;;;;;;;5.57;4.50;;;;;;;18.77;50.08;97963.03;6866622;28;20214;-77
2021/05/13 05:51:34;;;;;;;5.73;4.60;;;;;;;19.11;48.67;97973.00;6866152;28;20240;-78
2021/05/13 05:54:56;;;;;;;5.90;4.90;;;;;;;18.88;50.09;97978.28;6866114;28;20307;-79
2021/05/13 05:58:17;;;;;;;5.53;4.77;;;;;;;18.39;51.68;97969.94;6867398;28;20267;-80
2021/05/13 06:01:40;;;;;;;5.17;4.77;;;;;;;17.13;53.92;97972.69;6866708;28;20276;-79
2021/05/13 06:05:01;;;;;;;6.27;4.87;;;;;;;17.29;55.05;97968.94;6866724;28;20320;-79
2021/05/13 06:08:22;;;;;;;7.70;5.30;;;;;;;17.34;52.51;97975.22;6866760;28;20692;-78
2021/05/13 06:11:43;;;;;;;5.47;4.27;;;;;;;19.30;50.22;97971.34;6865651;28;20230;-80
2021/05/13 06:15:06;;;;;;;6.03;4.50;;;;;;;18.83;49.55;97965.47;6861238;28;20232;-79
2021/05/13 06:18:28;;;;;;;5.57;3.93;;;;;;;18.42;51.24;97968.56;6866173;28;20223;-78
2021/05/13 06:21:49;;;;;;;8.93;4.80;;;;;;;19.17;48.85;97966.41;6865375;28;20235;-77
2021/05/13 06:25:11;;;;;;;4.10;3.77;;;;;;;19.23;48.77;97970.78;6866099;28;20238;-78
2021/05/13 06:28:32;;;;;;;6.03;4.10;;;;;;;20.10;48.02;97959.06;6869419;28;20235;-78
2021/05/13 06:31:53;;;;;;;4.23;3.83;;;;;;;20.71;45.78;97954.66;6860376;28;20233;-77
2021/05/13 06:35:17;;;;;;;5.80;4.00;;;;;;;20.60;45.75;97945.72;6844947;29;20222;-78
2021/05/13 06:38:53;;;;;;;6.63;4.20;;;;;;;20.28;46.91;97956.44;6862718;28;20213;-82
2021/05/13 06:42:22;;;;;;;4.17;3.57;;;;;;;20.22;46.32;97952.09;6865810;28;20901;-77
2021/05/13 06:45:56;;;;;;;5.83;3.73;;;;;;;19.42;48.21;97960.03;6870860;28;20580;-77
2021/05/13 06:49:28;;;;;;;4.37;3.97;;;;;;;19.96;47.04;97955.31;6868112;28;20218;-77
2021/05/13 06:52:52;;;;;;;5.90;4.00;;;;;;;19.95;47.39;97949.03;6869973;28;20686;-79
2021/05/13 06:56:21;;;;;;;5.00;3.40;;;;;;;20.43;45.48;97947.25;6869618;28;20247;-76
2021/05/13 06:59:52;;;;;;;4.27;3.37;;;;;;;20.63;46.04;97942.41;6869169;28;20578;-77
2021/05/13 07:03:27;;;;;;;7.30;3.47;;;;;;;20.93;44.89;97953.03;6841863;29;20265;-78
2021/05/13 07:07:02;;;;;;;5.50;3.13;;;;;;;20.16;44.53;97950.53;6843559;29;20190;-77
2021/05/13 07:10:25;;;;;;;6.90;3.17;;;;;;;20.09;44.34;97944.56;6842694;29;20196;-77
2021/05/13 07:13:56;;;;;;;4.43;2.70;;;;;;;20.17;44.13;97946.69;6843460;29;20215;-77
2021/05/13 07:17:17;;;;;;;6.03;3.17;;;;;;;20.72;42.65;97946.16;6842749;28;20240;-77
2021/05/13 07:20:38;;;;;;;3.53;2.83;;;;;;;19.55;41.53;97952.06;6842498;29;20719;-77
2021/05/13 07:23:59;;;;;;;6.37;3.10;;;;;;;21.31;41.64;97936.38;6854760;28;20203;-76
2021/05/13 07:27:21;;;;;;;5.07;2.97;;;;;;;20.52;42.83;97896.25;6870305;28;20210;-78
2021/05/13 07:30:43;;;;;;;3.83;2.47;;;;;;;20.32;40.80;97935.59;6868810;28;20257;-77
2021/05/13 07:34:04;;;;;;;4.17;2.20;;;;;;;21.20;39.64;97940.38;6869576;28;20205;-77
2021/05/13 07:37:25;;;;;;;1.93;1.77;;;;;;;20.20;38.09;97893.28;6869248;28;20225;-79
2021/05/13 07:40:46;;;;;;;2.53;1.90;;;;;;;21.50;37.41;97931.75;6859849;28;20229;-77
2021/05/13 07:44:08;;;;;;;3.33;2.00;;;;;;;21.91;36.15;97929.25;6842404;29;20211;-77
2021/05/13 07:47:32;;;;;;;2.47;2.00;;;;;;;22.44;35.92;97931.38;6851018;28;20229;-77
2021/05/13 07:50:54;;;;;;;3.13;2.30;;;;;;;22.21;35.25;97913.09;6868724;28;20226;-77
2021/05/13 07:54:15;;;;;;;3.90;2.00;;;;;;;22.71;35.95;97914.91;6868603;28;20203;-77
2021/05/13 07:57:36;;;;;;;3.97;2.20;;;;;;;22.48;36.55;97888.44;6869415;28;20687;-77
2021/05/13 08:00:58;;;;;;;4.37;2.00;;;;;;;22.50;35.64;97915.63;6868382;28;20228;-77
2021/05/13 08:04:20;;;;;;;3.53;2.00;;;;;;;23.16;35.86;97926.94;6840928;28;20207;-77
2021/05/13 08:07:41;;;;;;;3.20;2.10;;;;;;;23.15;35.84;97919.81;6841037;29;20288;-77
2021/05/13 08:11:17;;;;;;;3.93;2.27;;;;;;;22.67;36.01;97911.13;6842303;28;20235;-77
2021/05/13 08:14:38;;;;;;;5.47;2.30;;;;;;;23.45;35.37;97924.69;6785047;29;20205;-78
2021/05/13 08:18:06;;;;;;;4.10;2.10;;;;;;;22.75;35.48;97915.94;6783737;29;20279;-78
2021/05/13 08:21:27;;;;;;;6.77;2.23;;;;;;;21.79;36.40;97910.50;6785419;29;20260;-79
2021/05/13 08:24:48;;;;;;;2.43;1.80;;;;;;;23.00;35.78;97903.63;6786212;29;20259;-78
2021/05/13 08:28:09;;;;;;;3.40;2.00;;;;;;;23.27;33.84;97911.88;6785753;29;20634;-77
2021/05/13 08:31:31;;;;;;;2.47;1.87;;;;;;;23.93;33.59;97906.53;6784871;29;20240;-77
2021/05/13 08:34:54;;;;;;;3.13;2.03;;;;;;;24.51;32.12;97869.47;6785591;29;20241;-77
2021/05/13 08:38:15;;;;;;;3.40;2.30;;;;;;;23.58;33.05;97901.81;6785014;29;20212;-77
2021/05/13 08:41:36;;;;;;;2.60;2.13;;;;;;;23.38;34.22;97900.38;6783367;29;20307;-77
2021/05/13 08:44:58;;;;;;;3.20;2.00;;;;;;;23.57;33.92;97890.00;6783863;29;20295;-77
2021/05/13 08:48:19;;;;;;;2.80;1.97;;;;;;;23.57;33.51;97889.19;6784885;29;20204;-79
2021/05/13 08:51:41;;;;;;;2.87;1.90;;;;;;;24.61;32.42;97893.22;6828675;28;20277;-79
2021/05/13 08:55:04;;;;;;;2.93;2.33;;;;;;;23.53;33.66;97890.91;6866484;28;20217;-76
2021/05/13 08:58:28;;;;;;;3.03;2.37;;;;;;;23.58;34.06;97888.88;6866197;28;20263;-77
2021/05/13 09:01:57;;;;;;;3.20;2.10;;;;;;;23.75;34.12;97875.28;6866615;28;20256;-77
2021/05/13 09:05:18;;;;;;;2.47;2.27;;;;;;;23.35;34.45;97880.88;6866705;28;20204;-77
2021/05/13 09:08:40;;;;;;;2.83;2.23;;;;;;;23.62;34.45;97878.06;6866687;28;20205;-78
2021/05/13 09:12:02;;;;;;;4.07;2.10;;;;;;;23.49;34.16;97863.22;6866183;28;20264;-77
2021/05/13 09:15:27;;;;;;;4.50;2.30;;;;;;;24.22;33.02;97855.38;6862503;28;20379;-77
2021/05/13 09:18:48;;;;;;;3.40;2.00;;;;;;;24.77;32.08;97873.16;6840824;29;20296;-78
2021/05/13 09:22:10;;;;;;;2.17;1.97;;;;;;;24.91;31.29;97864.78;6839713;29;20240;-76
2021/05/13 09:25:49;;;;;;;3.30;1.90;;;;;;;25.22;30.97;97860.81;6839559;29;20690;-77
2021/05/13 09:29:21;;;;;;;3.40;2.03;;;;;;;23.81;32.13;97865.75;6851140;28;20290;-78
2021/05/13 09:32:43;;;;;;;2.47;1.63;;;;;;;24.42;30.93;97854.03;6852743;28;20240;-78
2021/05/13 09:36:26;;;;;;;1.93;1.60;;;;;;;23.78;31.71;97825.06;6855713;28;20234;-79
2021/05/13 09:39:57;;;;;;;2.60;1.83;;;;;;;23.74;32.44;97851.63;6852630;28;20264;-76
2021/05/13 09:43:32;;;;;;;2.93;1.67;;;;;;;23.31;32.49;97841.38;6865212;28;20315;-77
2021/05/13 09:47:03;;;;;;;;;;;;;;;;;;;;;
2021/05/13 09:50:39;;;;;;;3.43;2.03;;;;;;;24.80;30.32;97817.41;6838406;29;20214;-77
2021/05/13 09:54:26;;;;;;;2.03;1.90;;;;;;;25.04;29.34;97819.72;6839513;29;20198;-77
2021/05/13 09:57:56;;;;;;;11.07;4.97;;;;;;;25.81;29.03;97796.53;6840180;29;20226;-77
2021/05/13 10:01:27;;;;;;;4.97;3.70;;;;;;;25.96;29.31;97820.91;6843603;28;20577;-77
2021/05/13 10:04:54;;;;;;;1.90;1.70;;;;;;;25.99;28.20;97802.88;6845000;29;20229;-78
2021/05/13 10:08:25;;;;;;;4.63;2.50;;;;;;;25.18;29.89;97814.88;6845755;29;20253;-77
2021/05/13 10:12:01;;;;;;;4.33;1.93;;;;;;;25.51;28.89;97811.34;6869573;28;20231;-77
2021/05/13 10:15:39;;;;;;;3.13;2.60;;;;;;;26.20;28.10;97799.06;6846955;28;20235;-78
2021/05/13 10:19:15;;;;;;;4.77;2.20;;;;;;;25.51;27.55;97769.13;6845566;29;20196;-78
2021/05/13 10:22:52;;;;;;;3.93;2.67;;;;;;;25.05;29.70;97810.28;6845570;29;20240;-77
2021/05/13 10:26:44;;;;;;;12.67;6.57;;;;;;;25.47;28.72;97813.13;6847177;28;20234;-77
2021/05/13 10:30:15;;;;;;;25.27;14.27;;;;;;;25.49;28.12;97805.31;6870476;28;20208;-78
2021/05/13 10:33:50;;;;;;;23.77;12.97;;;;;;;25.61;27.52;97808.25;6870060;28;20209;-79
2021/05/13 10:37:21;;;;;;;8.57;5.27;;;;;;;25.57;26.30;97810.06;6871463;28;20634;-78
2021/05/13 10:41:02;;;;;;;15.03;11.73;;;;;;;25.58;26.29;97788.75;6872326;28;20225;-79
2021/05/13 10:44:39;;;;;;;3.60;2.20;;;;;;;25.88;26.56;97807.06;6873094;28;20200;-78
2021/05/13 10:48:21;;;;;;;2.97;1.83;;;;;;;25.58;27.68;97794.28;6871026;28;20205;-77
2021/05/13 10:51:53;;;;;;;3.30;1.70;;;;;;;25.25;28.90;97805.00;6870336;28;20226;-78
2021/05/13 10:55:36;;;;;;;2.23;1.80;;;;;;;24.71;29.25;97800.00;6870283;28;20636;-77
2021/05/13 10:59:03;;;;;;;1.40;1.30;;;;;;;24.24;27.78;97800.75;6843225;29;20206;-79
2021/05/13 11:02:44;;;;;;;2.63;1.60;;;;;;;23.52;29.99;97802.06;6855901;28;20233;-77
2021/05/13 11:06:46;;;;;;;2.17;1.80;;;;;;;23.74;29.26;97801.25;6853136;28;20203;-79
2021/05/13 11:10:11;;;;;;;2.20;1.57;;;;;;;23.22;30.06;97811.03;6870772;28;20325;-77
2021/05/13 11:13:48;;;;;;;2.07;1.50;;;;;;;23.81;27.67;97788.69;6870813;28;20229;-77
2021/05/13 11:17:11;;;;;;;2.33;1.40;;;;;;;23.24;28.29;97819.00;6854633;28;20225;-76
2021/05/13 11:20:49;;;;;;;2.13;1.40;;;;;;;23.97;29.26;97803.72;6855364;28;20202;-77
2021/05/13 11:24:11;;;;;;;1.63;1.47;;;;;;;23.68;29.40;97802.50;6869987;28;20198;-76
2021/05/13 11:27:34;;;;;;;4.07;1.43;;;;;;;24.18;28.03;97802.03;6870417;28;20217;-78
2021/05/13 11:31:13;;;;;;;1.60;1.50;;;;;;;23.98;28.25;97804.50;6870300;28;20238;-78
2021/05/13 11:35:00;;;;;;;2.57;1.90;;;;;;;23.87;28.85;97806.72;6870925;28;20674;-78
2021/05/13 11:38:26;;;;;;;3.07;1.80;;;;;;;23.23;30.68;97793.41;6870902;28;20283;-78
2021/05/13 11:41:49;;;;;;;4.17;2.10;;;;;;;23.42;29.80;97799.56;6868404;28;20295;-77
2021/05/13 11:45:16;;;;;;;3.10;1.70;;;;;;;23.57;30.24;97801.94;6870057;28;20593;-77
2021/05/13 11:48:39;;;;;;;2.27;1.60;;;;;;;23.14;30.92;97794.44;6843985;29;20204;-77
2021/05/13 11:52:03;;;;;;;5.27;1.97;;;;;;;23.92;31.17;97789.25;6863760;28;20237;-76
2021/05/13 11:55:31;;;;;;;1.70;1.60;;;;;;;24.37;30.10;97777.00;6870083;28;20224;-77
2021/05/13 11:58:53;;;;;;;3.37;1.90;;;;;;;24.37;30.24;97783.31;6869666;28;20240;-77
2021/05/13 12:02:17;;;;;;;3.97;1.67;;;;;;;24.61;30.12;97783.75;6868482;28;20236;-78
2021/05/13 12:05:49;;;;;;;4.07;1.90;;;;;;;23.44;30.90;97791.81;6843541;28;20825;-76
2021/05/13 12:09:10;;;;;;;3.20;1.70;;;;;;;23.46;30.70;97784.06;6841927;29;20219;-76
2021/05/13 12:12:31;;;;;;;2.70;1.73;;;;;;;23.79;32.42;97790.91;6859370;28;20232;-76
2021/05/13 12:16:01;;;;;;;3.70;1.83;;;;;;;23.86;32.02;97774.78;6868326;28;20259;-77
2021/05/13 12:19:22;;;;;;;3.63;1.83;;;;;;;23.75;31.32;97786.34;6867125;28;20214;-76
2021/05/13 12:22:44;;;;;;;2.40;1.80;;;;;;;23.28;31.96;97787.81;6868676;28;20291;-76
2021/05/13 12:26:06;;;;;;;4.63;2.03;;;;;;;23.30;33.09;97782.78;6847466;28;20296;-75
2021/05/13 12:29:27;;;;;;;3.13;1.90;;;;;;;23.06;34.15;97803.44;6841025;29;20275;-78
2021/05/13 12:32:49;;;;;;;2.93;1.50;;;;;;;24.39;31.55;97789.34;6841929;28;20248;-77
2021/05/13 12:36:11;;;;;;;3.17;1.77;;;;;;;23.55;31.63;97797.88;6857669;28;20242;-76
2021/05/13 12:39:35;;;;;;;2.23;1.70;;;;;;;23.62;32.48;97803.75;6867268;28;20296;-76
2021/05/13 12:43:11;;;;;;;2.57;1.60;;;;;;;22.88;32.67;97787.84;6868807;28;20603;-76
2021/05/13 12:46:42;;;;;;;2.23;1.80;;;;;;;23.20;32.09;97799.53;6868461;28;20196;-76
2021/05/13 12:50:04;;;;;;;3.40;1.70;;;;;;;23.24;31.94;97803.28;6868045;28;20212;-76
2021/05/13 12:53:25;;;;;;;5.10;2.00;;;;;;;23.09;32.00;97789.03;6869829;28;20580;-77
2021/05/13 12:56:47;;;;;;;3.13;1.63;;;;;;;23.22;32.64;97797.28;6868840;28;20233;-77
2021/05/13 13:00:10;;;;;;;4.97;1.50;;;;;;;23.51;31.36;97796.88;6867319;28;20583;-79
2021/05/13 13:03:32;;;;;;;4.43;1.37;;;;;;;23.61;29.76;97804.88;6868269;28;20232;-77
2021/05/13 13:06:59;;;;;;;3.87;1.93;;;;;;;23.67;29.96;97782.41;6867213;28;20208;-78
2021/05/13 13:10:24;;;;;;;3.97;2.00;;;;;;;23.59;30.23;97801.66;6866843;28;20268;-77
2021/05/13 13:13:47;;;;;;;4.00;1.50;;;;;;;23.28;29.43;97796.06;6866841;28;20206;-77
2021/05/13 13:17:20;;;;;;;2.30;1.53;;;;;;;23.73;27.85;97799.63;6865028;28;20667;-77
2021/05/13 13:20:41;;;;;;;2.60;1.30;;;;;;;24.56;27.99;97792.16;6839546;28;20627;-78
2021/05/13 13:24:17;;;;;;;1.90;1.50;;;;;;;24.42;28.61;97785.13;6841385;28;20215;-78
2021/05/13 13:27:43;;;;;;;1.60;1.50;;;;;;;24.21;27.49;97787.66;6847279;28;20201;-77
2021/05/13 13:31:07;;;;;;;3.10;1.70;;;;;;;24.10;29.09;97791.78;6850348;28;20303;-77
2021/05/13 13:34:35;;;;;;;2.67;1.47;;;;;;;25.41;27.54;97773.03;6840214;29;20217;-78
2021/05/13 13:37:56;;;;;;;2.90;1.43;;;;;;;25.40;27.05;97771.41;6840382;28;20703;-77
2021/05/13 13:41:17;;;;;;;2.43;1.20;;;;;;;24.54;27.82;97777.88;6861522;28;20219;-76
2021/05/13 13:44:39;;;;;;;1.93;1.20;;;;;;;23.56;31.24;97783.81;6856006;28;20208;-77
2021/05/13 13:48:07;;;;;;;3.33;1.93;;;;;;;23.29;30.65;97763.84;6864810;28;20664;-78
2021/05/13 13:51:28;;;;;;;4.87;1.30;;;;;;;24.35;29.37;97771.81;6852225;28;20229;-78
2021/05/13 13:54:49;;;;;;;1.30;1.20;;;;;;;24.89;28.97;97776.84;6865576;28;20211;-77
2021/05/13 13:58:11;;;;;;;2.00;1.37;;;;;;;24.81;29.96;97782.34;6867232;28;20641;-78
2021/05/13 14:01:32;;;;;;;2.23;1.40;;;;;;;24.67;29.42;97778.91;6866260;28;20225;-77
2021/05/13 14:04:54;;;;;;;1.73;1.30;;;;;;;23.39;29.57;97782.88;6849317;28;20223;-77
2021/05/13 14:08:15;;;;;;;1.50;1.33;;;;;;;23.32;29.96;97796.25;6845176;28;20230;-78
2021/05/13 14:11:39;;;;;;;1.83;1.47;;;;;;;23.07;29.27;97792.09;6865832;28;20260;-77
2021/05/13 14:15:00;;;;;;;1.83;1.47;;;;;;;22.94;34.03;97803.13;6867219;28;20209;-77
2021/05/13 14:18:24;;;;;;;1.57;1.20;;;;;;;22.92;35.31;97808.13;6867333;28;20215;-79
2021/05/13 14:21:46;;;;;;;1.43;1.33;;;;;;;22.09;36.35;97808.41;6866510;28;20232;-78
2021/05/13 14:25:08;;;;;;;1.57;1.43;;;;;;;22.29;35.26;97808.03;6862615;28;20210;-78
2021/05/13 14:28:29;;;;;;;2.10;1.30;;;;;;;22.29;35.84;97820.94;6867002;28;20653;-77
2021/05/13 14:31:51;;;;;;;2.53;1.20;;;;;;;21.74;36.41;97820.03;6866376;28;20237;-77
2021/05/13 14:35:12;;;;;;;1.20;1.10;;;;;;;21.49;34.55;97819.59;6848058;28;20319;-78
2021/05/13 14:38:36;;;;;;;1.50;1.00;;;;;;;21.27;35.72;97824.06;6866696;28;20216;-78
2021/05/13 14:41:58;;;;;;;1.23;1.13;;;;;;;21.49;35.29;97822.34;6865323;28;20317;-77
2021/05/13 14:45:21;;;;;;;2.93;1.57;;;;;;;22.14;34.38;97816.53;6866803;28;20213;-77
2021/05/13 14:48:46;;;;;;;1.60;1.10;;;;;;;22.18;34.16;97823.06;6863643;28;20223;-77
2021/05/13 14:52:08;;;;;;;1.27;1.20;;;;;;;22.22;34.43;97826.00;6869570;28;20229;-77
2021/05/13 14:55:30;;;;;;;2.90;1.87;;;;;;;21.75;35.20;97816.16;6859325;28;20243;-77
2021/05/13 14:58:52;;;;;;;2.13;1.40;;;;;;;21.26;36.34;97809.53;6868990;28;20201;-77
2021/05/13 15:02:14;;;;;;;1.30;1.20;;;;;;;21.49;36.48;97831.34;6868539;28;20237;-77
2021/05/13 15:05:38;;;;;;;3.60;1.40;;;;;;;21.14;38.24;97834.63;6868253;28;20213;-77
2021/05/13 15:08:59;;;;;;;1.27;1.17;;;;;;;21.39;38.07;97842.50;6869151;28;20218;-77
2021/05/13 15:12:21;;;;;;;1.40;1.30;;;;;;;22.05;36.69;97837.59;6868571;28;20225;-77
2021/05/13 15:15:43;;;;;;;3.50;1.23;;;;;;;21.46;38.68;97831.97;6869768;28;20232;-77
2021/05/13 15:19:04;;;;;;;0.90;0.90;;;;;;;21.76;37.33;97849.88;6870768;28;20652;-77
2021/05/13 15:22:27;;;;;;;0.80;0.80;;;;;;;21.24;38.05;97845.47;6870185;28;20825;-77
2021/05/13 15:25:48;;;;;;;1.17;1.10;;;;;;;20.93;37.98;97831.69;6871369;28;20654;-78
2021/05/13 15:29:10;;;;;;;2.87;1.17;;;;;;;20.62;38.20;97835.84;6870762;28;20236;-79
2021/05/13 15:32:37;;;;;;;1.00;1.00;;;;;;;21.15;37.12;97851.91;6870013;28;20245;-78
2021/05/13 15:35:58;;;;;;;1.07;0.87;;;;;;;21.60;36.35;97838.31;6870918;28;20213;-78
2021/05/13 15:39:19;;;;;;;1.10;1.10;;;;;;;21.52;37.10;97847.22;6887729;28;20292;-77
2021/05/13 15:42:41;;;;;;;1.23;1.10;;;;;;;21.39;37.41;97848.00;6866114;28;20700;-77
2021/05/13 15:46:03;;;;;;;1.50;1.40;;;;;;;21.67;36.75;97854.44;6873806;28;20603;-79
2021/05/13 15:49:25;;;;;;;1.57;1.20;;;;;;;21.35;38.01;97855.16;6867236;28;20212;-76
2021/05/13 15:52:46;;;;;;;0.83;0.83;;;;;;;20.94;39.22;97852.47;6857267;28;20590;-77
2021/05/13 15:56:07;;;;;;;1.23;1.13;;;;;;;21.52;39.36;97852.72;6858453;28;20229;-77
2021/05/13 15:59:28;;;;;;;1.00;1.00;;;;;;;21.50;38.86;97859.63;6867692;28;20213;-77
2021/05/13 16:02:51;;;;;;;0.90;0.90;;;;;;;21.49;39.19;97852.50;6876235;28;20232;-77
2021/05/13 16:06:13;;;;;;;1.97;1.03;;;;;;;20.88;39.52;97839.94;6885087;28;20213;-77
2021/05/13 16:09:34;;;;;;;3.67;1.30;;;;;;;21.08;39.67;97851.47;6868756;28;20297;-78
2021/05/13 16:13:02;;;;;;;1.00;1.00;;;;;;;20.74;39.85;97849.97;6870080;28;20253;-79
2021/05/13 16:16:23;;;;;;;1.00;1.00;;;;;;;21.14;38.80;97842.06;6883654;28;20229;-79
2021/05/13 16:19:45;;;;;;;1.30;1.20;;;;;;;20.56;38.77;97826.06;6866308;28;20210;-77
2021/05/13 16:23:06;;;;;;;2.00;1.00;;;;;;;21.08;38.99;97845.97;6865040;28;20222;-78
2021/05/13 16:26:28;;;;;;;0.87;0.87;;;;;;;20.81;39.21;97832.06;6868874;28;20545;-78
2021/05/13 16:29:49;;;;;;;0.90;0.90;;;;;;;20.88;40.24;97839.94;6869808;28;20210;-79
2021/05/13 16:33:11;;;;;;;0.80;0.80;;;;;;;20.28;38.55;97833.25;6869735;28;20233;-79
2021/05/13 16:36:34;;;;;;;0.67;0.67;;;;;;;20.72;38.18;97830.25;6869759;28;20232;-77
2021/05/13 16:39:59;;;;;;;0.90;0.90;;;;;;;20.73;38.79;97824.50;6864528;28;20213;-76
2021/05/13 16:43:21;;;;;;;1.40;1.30;;;;;;;21.25;37.70;97836.13;6865680;28;20234;-76
2021/05/13 16:46:42;;;;;;;1.20;0.97;;;;;;;20.81;39.19;97845.75;6865596;28;20670;-77
2021/05/13 16:50:05;;;;;;;0.90;0.90;;;;;;;20.90;39.11;97845.94;6867194;28;20657;-77
2021/05/13 16:53:27;;;;;;;1.00;1.00;;;;;;;20.92;39.43;97822.63;6866308;28;20265;-77
2021/05/13 16:56:48;;;;;;;1.47;1.30;;;;;;;21.20;38.51;97838.13;6867238;28;20700;-77
2021/05/13 17:00:12;;;;;;;0.67;0.67;;;;;;;21.53;37.74;97837.09;6854102;28;20575;-76
2021/05/13 17:03:34;;;;;;;1.13;0.90;;;;;;;21.57;37.80;97836.19;6849661;28;20642;-77
2021/05/13 17:06:55;;;;;;;0.80;0.80;;;;;;;21.18;38.64;97840.38;6867000;28;20273;-79
2021/05/13 17:10:17;;;;;;;1.00;0.90;;;;;;;20.76;38.95;97839.53;6861244;28;20310;-78
2021/05/13 17:13:39;;;;;;;0.97;0.93;;;;;;;19.95;40.20;97853.28;6856907;28;20204;-78
2021/05/13 17:17:00;;;;;;;1.20;1.20;;;;;;;20.47;39.95;97860.69;6866480;28;20261;-77
2021/05/13 17:20:21;;;;;;;1.27;1.00;;;;;;;20.47;40.46;97857.97;6863556;28;20210;-76
2021/05/13 17:23:42;;;;;;;0.90;0.90;;;;;;;20.26;40.68;97854.63;6865812;28;20201;-76
2021/05/13 17:27:05;;;;;;;1.07;1.00;;;;;;;19.83;41.63;97862.94;6846913;28;20256;-76
2021/05/13 17:30:26;;;;;;;1.10;1.10;;;;;;;20.22;40.88;97837.13;6840161;28;20250;-76
2021/05/13 17:33:51;;;;;;;1.20;1.20;;;;;;;19.67;42.73;97864.16;6840038;28;20196;-77
2021/05/13 17:37:12;;;;;;;1.53;1.30;;;;;;;19.68;43.50;97883.03;6864608;28;20312;-77
2021/05/13 17:40:34;;;;;;;0.90;0.90;;;;;;;19.83;42.75;97885.66;6847038;28;20229;-77
2021/05/13 17:43:57;;;;;;;1.13;1.03;;;;;;;19.98;41.94;97871.84;6840630;28;20210;-76
2021/05/13 17:47:18;;;;;;;1.00;1.00;;;;;;;19.45;42.84;97875.53;6866002;28;20284;-76
2021/05/13 17:50:40;;;;;;;0.87;0.87;;;;;;;19.90;40.93;97880.69;6865944;28;20225;-77
2021/05/13 17:54:02;;;;;;;0.80;0.80;;;;;;;19.44;40.97;97894.97;6866397;28;20220;-78
2021/05/13 17:57:23;;;;;;;1.20;1.10;;;;;;;19.29;40.72;97868.53;6861630;28;20221;-76
2021/05/13 18:00:48;;;;;;;0.97;0.97;;;;;;;19.41;40.62;97893.59;6850215;28;20221;-77
2021/05/13 18:04:09;;;;;;;0.80;0.80;;;;;;;19.82;40.20;97888.69;6860122;28;20222;-77
2021/05/13 18:07:30;;;;;;;0.83;0.77;;;;;;;20.24;39.73;97883.41;6861482;28;20225;-78
2021/05/13 18:10:52;;;;;;;1.20;1.10;;;;;;;19.33;41.58;97880.56;6854493;28;20280;-77
2021/05/13 18:14:14;;;;;;;0.97;0.97;;;;;;;19.30;41.85;97900.25;6865826;28;20579;-77
2021/05/13 18:17:36;;;;;;;0.80;0.80;;;;;;;19.08;42.27;97912.63;6865239;28;20776;-76
2021/05/13 18:21:01;;;;;;;1.90;0.83;;;;;;;19.08;42.23;97920.81;6848413;28;20289;-78
2021/05/13 18:24:22;;;;;;;1.47;1.30;;;;;;;19.12;42.04;97919.19;6861267;28;20212;-78
2021/05/13 18:27:43;;;;;;;1.00;1.00;;;;;;;18.98;42.82;97926.34;6870488;28;20228;-77
2021/05/13 18:31:05;;;;;;;0.97;0.97;;;;;;;18.55;43.20;97888.81;6868823;28;20229;-78
2021/05/13 18:34:27;;;;;;;2.50;1.10;;;;;;;19.42;41.73;97928.06;6869261;28;20590;-77
2021/05/13 18:37:49;;;;;;;1.23;0.90;;;;;;;18.97;41.71;97927.44;6873192;28;20234;-78
2021/05/13 18:41:10;;;;;;;0.80;0.80;;;;;;;19.00;41.39;97926.88;6865776;28;20244;-76
2021/05/13 18:44:31;;;;;;;1.03;1.03;;;;;;;19.54;40.38;97939.47;6867357;28;20205;-75
2021/05/13 18:47:53;;;;;;;0.90;0.90;;;;;;;19.02;41.41;97935.63;6870973;28;20224;-76
2021/05/13 18:51:15;;;;;;;0.93;0.93;;;;;;;19.33;40.07;97939.88;6868445;28;20225;-77
2021/05/13 18:54:36;;;;;;;1.47;1.03;;;;;;;18.82;41.79;97958.34;6868762;28;20737;-76
2021/05/13 18:57:59;;;;;;;1.03;1.03;;;;;;;18.80;41.83;97954.28;6868459;28;20228;-76
2021/05/13 19:01:20;;;;;;;1.10;1.10;;;;;;;19.09;41.29;97953.34;6869650;28;20972;-76
2021/05/13 19:04:42;;;;;;;1.07;1.07;;;;;;;18.51;42.03;97961.47;6870689;28;20209;-77
2021/05/13 19:08:04;;;;;;;1.30;1.20;;;;;;;18.54;42.11;97963.63;6870502;28;20212;-76
2021/05/13 19:11:26;;;;;;;1.13;1.10;;;;;;;18.76;42.14;97970.38;6868301;28;20594;-75
2021/05/13 19:14:47;;;;;;;0.90;0.90;;;;;;;18.84;41.74;97963.53;6869201;28;20296;-77
2021/05/13 19:18:10;;;;;;;1.13;1.13;;;;;;;18.78;41.53;97957.28;6869216;28;20690;-77
2021/05/13 19:21:31;;;;;;;1.10;1.10;;;;;;;18.69;41.54;97980.00;6867853;28;20590;-78
2021/05/13 19:24:53;;;;;;;1.67;0.90;;;;;;;18.33;43.09;97986.59;6868835;28;20554;-78
2021/05/13 19:28:15;;;;;;;1.00;0.97;;;;;;;18.78;41.66;97976.41;6869095;28;20567;-78
2021/05/13 19:31:41;;;;;;;1.67;1.00;;;;;;;18.49;42.49;97993.66;6868154;28;20239;-77